Time;durP1;ratioP1;P1;durP2;ratioP2;P2;SDS_P1;SDS_P2;PMS_P1;PMS_P2;Temp;Humidity;BMP_temperature;BMP_pressure;BME280_temperature;BME280_humidity;BME280_pressure;Samples;Min_cycle;Max_cycle;Signal;HPM_P1;HPM_P2
2022/08/04 00:02:21;;;;;;;3.92;1.80;;;;;;;21.88;100.00;100250.22;5086425;28;20455;-77
2022/08/04 00:05:03;;;;;;;5.30;2.00;;;;;;;21.93;100.00;100260.50;5060617;28;20108;-78
2022/08/04 00:07:38;;;;;;;4.13;2.10;;;;;;;21.86;100.00;100243.34;5038898;28;20099;-78
2022/08/04 00:10:05;;;;;;;7.57;2.53;;;;;;;21.96;100.00;100248.66;5062033;28;20060;-77
2022/08/04 00:12:32;;;;;;;6.55;2.28;;;;;;;21.87;100.00;100231.63;5050457;28;20029;-77
2022/08/04 00:14:59;;;;;;;3.40;2.03;;;;;;;21.62;100.00;100189.59;5062119;28;20073;-77
2022/08/04 00:17:30;;;;;;;3.22;1.58;;;;;;;21.82;100.00;100218.72;5060545;28;20048;-77
2022/08/04 00:19:59;;;;;;;4.82;2.30;;;;;;;21.86;100.00;100228.13;5051330;28;20160;-78
2022/08/04 00:22:27;;;;;;;9.88;2.15;;;;;;;21.81;100.00;100217.03;5071993;28;20024;-78
2022/08/04 00:24:54;;;;;;;6.72;2.05;;;;;;;21.93;100.00;100233.75;5054196;28;20063;-78
2022/08/04 00:27:20;;;;;;;6.05;2.38;;;;;;;21.97;100.00;100243.13;5095597;28;20048;-77
2022/08/04 00:29:46;;;;;;;4.88;1.95;;;;;;;21.94;100.00;100239.91;5061423;28;20091;-77
2022/08/04 00:32:12;;;;;;;6.72;2.47;;;;;;;21.84;100.00;100218.56;5057270;28;20050;-77
2022/08/04 00:34:37;;;;;;;4.60;2.47;;;;;;;21.86;100.00;100228.13;5062820;28;20041;-77
2022/08/04 00:37:04;;;;;;;9.70;2.22;;;;;;;21.85;100.00;100231.81;5054120;28;20031;-78
2022/08/04 00:39:31;;;;;;;7.15;2.10;;;;;;;21.65;100.00;100203.53;5062787;28;20029;-78
2022/08/04 00:41:56;;;;;;;5.57;2.20;;;;;;;21.81;100.00;100235.78;5072894;28;20025;-78
2022/08/04 00:44:40;;;;;;;10.48;2.35;;;;;;;21.76;100.00;100232.72;5055555;28;20039;-78
2022/08/04 00:47:17;;;;;;;5.05;2.20;;;;;;;21.57;100.00;100213.28;5059840;28;20051;-78
2022/08/04 00:49:54;;;;;;;5.45;2.15;;;;;;;21.44;100.00;100196.75;5070455;28;20060;-78
2022/08/04 00:52:34;;;;;;;5.43;2.00;;;;;;;21.59;100.00;100224.69;5071122;28;20036;-78
2022/08/04 00:55:24;;;;;;;10.65;2.83;;;;;;;21.56;100.00;100230.34;5064390;28;20475;-77
2022/08/04 00:58:04;;;;;;;6.15;2.50;;;;;;;21.52;100.00;100223.59;5074726;28;20440;-78
2022/08/04 01:01:01;;;;;;;4.88;2.22;;;;;;;21.40;100.00;100205.09;5074433;28;20025;-77
2022/08/04 01:03:35;;;;;;;5.80;2.08;;;;;;;21.39;100.00;100200.72;5061222;28;20078;-77
2022/08/04 01:06:19;;;;;;;;;;;;;;;21.53;100.00;100220.75;5057923;28;20025;-78
2022/08/04 01:08:58;;;;;;;6.80;1.98;;;;;;;21.49;100.00;100213.22;5054854;28;19909;-78
2022/08/04 01:11:46;;;;;;;4.32;1.80;;;;;;;21.36;100.00;100192.16;5081594;28;20108;-78
2022/08/04 01:14:34;;;;;;;5.35;2.28;;;;;;;21.50;100.00;100210.38;5080265;28;20036;-78
2022/08/04 01:17:12;;;;;;;6.85;2.70;;;;;;;21.34;100.00;100184.31;5044907;28;20361;-77
2022/08/04 01:19:57;;;;;;;11.40;2.30;;;;;;;21.50;100.00;100212.19;5067440;28;20533;-77
2022/08/04 01:22:31;;;;;;;9.00;2.88;;;;;;;21.35;100.00;100180.66;5054780;28;20029;-78
2022/08/04 01:25:18;;;;;;;7.78;2.65;;;;;;;21.48;100.00;100200.81;5074175;28;20507;-78
2022/08/04 01:28:06;;;;;;;7.60;2.67;;;;;;;21.52;100.00;100212.91;5077496;28;20032;-78
2022/08/04 01:30:32;;;;;;;5.38;2.33;;;;;;;21.37;100.00;100177.81;5071815;28;20115;-78
2022/08/04 01:32:57;;;;;;;6.55;2.40;;;;;;;21.51;100.00;100205.88;5061816;28;20058;-77
2022/08/04 01:35:45;;;;;;;6.45;2.80;;;;;;;21.32;100.00;100170.28;5086325;28;20471;-78
2022/08/04 01:38:23;;;;;;;5.03;2.17;;;;;;;21.48;100.00;100200.81;5057330;28;20024;-78
2022/08/04 01:40:56;;;;;;;3.35;1.50;;;;;;;21.35;100.00;100180.66;5057964;28;20028;-77
2022/08/04 01:43:22;;;;;;;6.80;2.60;;;;;;;21.30;100.00;100174.06;5071408;28;20060;-77
2022/08/04 01:45:56;;;;;;;5.78;2.38;;;;;;;21.30;100.00;100177.59;5060760;28;20479;-77
2022/08/04 01:48:26;;;;;;;5.88;2.47;;;;;;;21.24;100.00;100177.34;5068328;28;20024;-78
2022/08/04 01:50:53;;;;;;;5.05;2.17;;;;;;;21.14;100.00;100169.38;5054137;28;20480;-78
2022/08/04 01:53:20;;;;;;;8.75;2.35;;;;;;;21.18;100.00;100184.16;5054845;28;20151;-77
2022/08/04 01:55:48;;;;;;;8.05;2.72;;;;;;;21.08;100.00;100172.63;5056087;28;20394;-77
2022/08/04 01:58:17;;;;;;;11.02;2.42;;;;;;;21.09;100.00;100174.28;5071268;28;20028;-78
2022/08/04 02:00:54;;;;;;;4.78;2.38;;;;;;;20.85;100.00;100150.00;5059773;28;20024;-77
2022/08/04 02:03:20;;;;;;;6.93;2.10;;;;;;;20.85;100.00;100150.81;5053835;28;20043;-77
2022/08/04 02:05:47;;;;;;;4.00;2.22;;;;;;;20.92;100.00;100180.44;5063414;28;20028;-77
2022/08/04 02:08:12;;;;;;;9.05;2.83;;;;;;;20.86;100.00;100173.00;5072037;28;20024;-77
2022/08/04 02:10:40;;;;;;;5.60;2.38;;;;;;;20.83;100.00;100176.00;5070921;28;20090;-76
2022/08/04 02:13:22;;;;;;;5.93;2.20;;;;;;;20.70;100.00;100154.97;5055284;28;20021;-77
2022/08/04 02:15:53;;;;;;;6.68;2.30;;;;;;;20.65;100.00;100159.09;5088748;28;20035;-77
2022/08/04 02:18:23;;;;;;;5.50;2.58;;;;;;;20.68;100.00;100172.97;5065776;28;20032;-77
2022/08/04 02:20:54;;;;;;;8.55;2.47;;;;;;;20.51;100.00;100136.38;5068284;28;20108;-77
2022/08/04 02:23:42;;;;;;;4.68;2.30;;;;;;;20.41;100.00;100130.22;5053378;28;20025;-77
2022/08/04 02:26:12;;;;;;;5.70;2.33;;;;;;;20.55;100.00;100159.09;5052638;28;20025;-77
2022/08/04 02:28:50;;;;;;;6.18;2.47;;;;;;;20.36;100.00;100133.31;5064585;28;20044;-77
2022/08/04 02:31:23;;;;;;;3.53;2.03;;;;;;;20.21;100.00;100124.06;5068194;28;20203;-77
2022/08/04 02:33:57;;;;;;;4.47;2.70;;;;;;;20.18;100.00;100136.84;5078495;28;20104;-77
2022/08/04 02:36:34;;;;;;;4.20;2.35;;;;;;;20.09;100.00;100125.22;5069352;28;20039;-78
2022/08/04 02:39:02;;;;;;;5.22;2.70;;;;;;;20.25;100.00;100154.81;5074994;28;20126;-77
2022/08/04 02:41:30;;;;;;;6.22;2.25;;;;;;;20.24;100.00;100161.13;5065187;28;20045;-77
2022/08/04 02:43:58;;;;;;;7.32;2.78;;;;;;;19.66;100.00;100067.06;5063261;28;20123;-77
2022/08/04 02:46:24;;;;;;;5.32;2.55;;;;;;;20.12;100.00;100140.94;5084095;28;20021;-78
2022/08/04 02:48:50;;;;;;;10.60;2.30;;;;;;;19.70;100.00;100080.94;5060537;28;20025;-77
2022/08/04 02:51:36;;;;;;;7.53;2.67;;;;;;;19.94;100.00;100121.31;5052701;28;20085;-77
2022/08/04 02:54:04;;;;;;;6.40;2.50;;;;;;;19.88;100.00;100116.56;5070993;28;20039;-77
2022/08/04 02:56:31;;;;;;;7.32;2.75;;;;;;;19.88;100.00;100128.06;5068451;28;20025;-77
2022/08/04 02:59:02;;;;;;;4.55;2.28;;;;;;;19.87;100.00;100131.72;5062684;28;20115;-77
2022/08/04 03:01:28;;;;;;;4.50;2.17;;;;;;;19.90;100.00;100130.59;5074809;28;20035;-77
2022/08/04 03:04:16;;;;;;;5.30;2.42;;;;;;;19.87;100.00;100125.56;5059027;28;20032;-77
2022/08/04 03:06:50;;;;;;;5.80;2.70;;;;;;;19.89;100.00;100128.91;5086964;28;20100;-78
2022/08/04 03:09:45;;;;;;;5.43;2.75;;;;;;;19.87;100.00;100125.56;5069857;28;20358;-77
2022/08/04 03:12:25;;;;;;;4.80;2.78;;;;;;;19.85;100.00;100125.69;5049916;28;20037;-77
2022/08/04 03:15:16;;;;;;;6.00;2.60;;;;;;;19.83;100.00;100130.34;5083282;28;20031;-77
2022/08/04 03:18:00;;;;;;;5.95;2.40;;;;;;;19.82;100.00;100128.63;5059900;28;20040;-78
2022/08/04 03:20:44;;;;;;;4.55;2.20;;;;;;;19.78;100.00;100131.72;5069725;28;20027;-77
2022/08/04 03:23:32;;;;;;;7.57;2.72;;;;;;;19.45;100.00;100077.03;5074212;28;20036;-77
2022/08/04 03:26:28;;;;;;;5.70;2.47;;;;;;;19.59;100.00;100094.44;5077809;28;20111;-78
2022/08/04 03:28:57;;;;;;;5.95;2.28;;;;;;;19.79;100.00;100125.41;5073510;28;20383;-77
2022/08/04 03:31:47;;;;;;;5.80;2.08;;;;;;;19.81;100.00;100118.09;5058541;28;20425;-77
2022/08/04 03:34:15;;;;;;;6.55;2.33;;;;;;;19.81;100.00;100116.28;5054158;28;20071;-77
2022/08/04 03:37:07;;;;;;;5.85;2.63;;;;;;;19.84;100.00;100118.66;5058572;28;20039;-77
2022/08/04 03:39:51;;;;;;;4.40;2.33;;;;;;;19.89;100.00;100121.75;5054955;28;20040;-77
2022/08/04 03:42:51;;;;;;;4.50;2.17;;;;;;;19.93;100.00;100114.31;5097275;28;20059;-78
2022/08/04 03:45:41;;;;;;;6.43;2.65;;;;;;;19.97;100.00;100120.19;5065836;28;20040;-77
2022/08/04 03:48:25;;;;;;;7.43;2.42;;;;;;;19.99;100.00;100120.88;5052013;28;20056;-78
2022/08/04 03:54:57;;;;;;;4.60;2.67;;;;;;;19.89;100.00;100088.91;5065593;28;20173;-77
2022/08/04 03:57:53;;;;;;;5.40;2.20;;;;;;;20.06;100.00;100114.84;5047986;28;20075;-78
2022/08/04 04:00:28;;;;;;;4.80;2.72;;;;;;;20.03;100.00;100107.13;5052608;28;20466;-77
2022/08/04 04:03:05;;;;;;;5.18;2.33;;;;;;;20.07;100.00;100113.03;5072527;28;20106;-77
2022/08/04 04:05:47;;;;;;;3.78;1.75;;;;;;;20.06;100.00;100112.16;5077716;28;20028;-77
2022/08/04 04:08:26;;;;;;;6.82;2.20;;;;;;;20.02;100.00;100108.09;5067825;28;20402;-77
2022/08/04 04:11:14;;;;;;;4.82;2.50;;;;;;;20.09;100.00;100111.88;5057407;28;20037;-77
2022/08/04 04:14:10;;;;;;;5.20;2.10;;;;;;;20.11;100.00;100112.56;5063711;28;20029;-77
2022/08/04 04:16:42;;;;;;;3.92;2.05;;;;;;;20.12;100.00;100119.59;5069307;28;20036;-78
2022/08/04 04:19:23;;;;;;;5.70;2.63;;;;;;;20.13;100.00;100118.63;5084302;28;20094;-78
2022/08/04 04:22:06;;;;;;;4.32;2.20;;;;;;;20.14;100.00;100128.28;5068982;28;20336;-77
2022/08/04 04:24:44;;;;;;;3.83;2.27;;;;;;;20.12;100.00;100130.25;5075831;28;20081;-77
2022/08/04 04:27:44;;;;;;;4.40;2.40;;;;;;;20.11;100.00;100131.25;5072213;28;20037;-76
2022/08/04 04:30:18;;;;;;;4.88;2.13;;;;;;;19.98;100.00;100098.69;5075762;28;20107;-77
2022/08/04 04:33:11;;;;;;;4.28;2.28;;;;;;;20.05;100.00;100107.81;5074429;28;20107;-77
2022/08/04 04:35:44;;;;;;;5.55;2.35;;;;;;;20.07;100.00;100099.69;5082309;28;20063;-77
2022/08/04 04:38:27;;;;;;;4.60;1.95;;;;;;;20.16;100.00;100122.81;5064212;28;20090;-77
2022/08/04 04:41:06;;;;;;;5.90;2.17;;;;;;;20.15;100.00;100118.44;5060830;28;20096;-78
2022/08/04 04:43:47;;;;;;;5.50;1.92;;;;;;;20.14;100.00;100112.28;5082311;28;20033;-78
2022/08/04 04:46:34;;;;;;;7.35;2.33;;;;;;;20.02;100.00;100093.91;5061364;28;20033;-78
2022/08/04 04:49:07;;;;;;;4.38;2.25;;;;;;;19.86;100.00;100062.53;5080140;28;20143;-78
2022/08/04 04:52:00;;;;;;;7.15;2.28;;;;;;;20.20;100.00;100110.88;5063150;28;20098;-78
2022/08/04 04:54:32;;;;;;;3.95;1.75;;;;;;;20.26;100.00;100115.63;5078715;28;20036;-78
2022/08/04 04:57:05;;;;;;;4.68;1.90;;;;;;;20.15;100.00;100084.63;5056118;28;20039;-77
2022/08/04 04:59:33;;;;;;;6.57;2.30;;;;;;;20.36;100.00;100111.97;5073642;28;20098;-78
2022/08/04 05:02:20;;;;;;;4.63;2.08;;;;;;;20.41;100.00;100108.03;5060564;28;20032;-77
2022/08/04 05:04:55;;;;;;;3.78;1.85;;;;;;;20.47;100.00;100112.78;5065116;28;20028;-78
2022/08/04 05:07:44;;;;;;;7.05;2.45;;;;;;;20.52;100.00;100111.34;5076680;28;20107;-78
2022/08/04 05:10:47;;;;;;;5.72;2.10;;;;;;;20.59;100.00;100116.91;5063354;28;20033;-78
2022/08/04 05:13:32;;;;;;;7.97;2.42;;;;;;;20.65;100.00;100117.16;5076227;28;20029;-77
2022/08/04 05:16:04;;;;;;;10.40;2.15;;;;;;;20.68;100.00;100111.56;5058042;28;20387;-78
2022/08/04 05:18:32;;;;;;;5.80;2.70;;;;;;;20.73;100.00;100103.94;5065541;28;20093;-78
2022/08/04 05:21:21;;;;;;;8.70;2.65;;;;;;;20.74;100.00;100078.06;5065844;28;20056;-78
2022/08/04 05:23:49;;;;;;;6.25;2.47;;;;;;;20.93;100.00;100083.28;5060978;28;20057;-78
2022/08/04 05:26:16;;;;;;;7.25;2.80;;;;;;;21.21;100.00;100098.31;5108518;27;20019;-78
2022/08/04 05:28:53;;;;;;;6.07;2.92;;;;;;;21.30;100.00;100092.03;5052506;28;20032;-78
2022/08/04 05:31:23;;;;;;;5.88;2.58;;;;;;;21.47;100.00;100089.50;5068729;28;20033;-77
2022/08/04 05:33:58;;;;;;;5.82;2.55;;;;;;;21.73;100.00;100111.81;5055743;28;20024;-77
2022/08/04 05:36:33;;;;;;;5.00;2.50;;;;;;;21.81;100.00;100101.16;5052738;28;20031;-78
2022/08/04 05:38:59;;;;;;;4.50;2.55;;;;;;;21.91;100.00;100112.63;5060513;28;20037;-78
2022/08/04 05:41:26;;;;;;;8.60;2.35;;;;;;;21.87;100.00;100084.47;5062457;28;20441;-77
2022/08/04 05:43:51;;;;;;;10.20;3.17;;;;;;;22.22;100.00;100121.88;5066515;28;20021;-76
2022/08/04 05:46:17;;;;;;;17.25;3.30;;;;;;;22.36;100.00;100128.50;5052827;28;20078;-77
2022/08/04 05:48:44;;;;;;;6.50;2.67;;;;;;;22.55;100.00;100133.59;5053027;28;20029;-77
2022/08/04 05:51:09;;;;;;;10.63;3.88;;;;;;;22.29;100.00;100074.75;5073273;28;20034;-76
2022/08/04 05:53:35;;;;;;;22.42;4.88;;;;;;;22.68;100.00;100119.78;5082886;28;20040;-77
2022/08/04 05:56:01;;;;;;;16.65;5.78;;;;;;;22.72;100.00;100113.97;5058981;28;20033;-77
2022/08/04 05:58:30;;;;;;;17.13;5.43;;;;;;;22.98;100.00;100129.97;5084600;28;20147;-77
2022/08/04 06:00:57;;;;;;;13.32;4.25;;;;;;;23.04;100.00;100123.13;5063244;28;20090;-77
2022/08/04 06:03:24;;;;;;;17.98;3.28;;;;;;;23.21;100.00;100136.41;5068560;28;20031;-77
2022/08/04 06:05:50;;;;;;;12.20;4.18;;;;;;;23.23;100.00;100129.03;5063877;28;20363;-77
2022/08/04 06:08:16;;;;;;;9.20;3.25;;;;;;;23.29;100.00;100139.09;5068615;28;20028;-77
2022/08/04 06:10:43;;;;;;;15.70;3.90;;;;;;;22.93;100.00;100062.63;5075258;28;20031;-77
2022/08/04 06:13:13;;;;;;;10.25;3.28;;;;;;;23.40;100.00;100125.41;5072658;28;20037;-76
2022/08/04 06:15:40;;;;;;;13.55;4.80;;;;;;;23.53;100.00;100134.78;5070191;28;20043;-77
2022/08/04 06:18:08;;;;;;;21.10;4.60;;;;;;;23.68;100.00;100130.47;5055288;28;20052;-77
2022/08/04 06:20:36;;;;;;;22.63;5.03;;;;;;;23.80;100.00;100139.84;5102756;27;20159;-78
2022/08/04 06:23:14;;;;;;;24.58;5.85;;;;;;;23.71;100.00;100098.75;5087594;28;20032;-77
2022/08/04 06:25:46;;;;;;;24.13;5.60;;;;;;;24.03;100.00;100137.34;5067084;28;20478;-78
2022/08/04 06:28:12;;;;;;;13.10;3.50;;;;;;;23.91;100.00;100107.28;5063476;28;20036;-77
2022/08/04 06:30:39;;;;;;;12.50;2.75;;;;;;;24.23;100.00;100125.25;5071085;28;20481;-76
2022/08/04 06:33:22;;;;;;;12.07;2.60;;;;;;;24.40;100.00;100138.44;5073770;28;20522;-76
2022/08/04 06:35:49;;;;;;;5.40;2.38;;;;;;;24.51;100.00;100137.25;5065581;28;20040;-77
2022/08/04 06:38:14;;;;;;;7.50;2.13;;;;;;;24.63;100.00;100135.88;5062835;28;20026;-78
2022/08/04 06:40:40;;;;;;;9.38;2.50;;;;;;;24.77;100.00;100131.63;5086171;28;20056;-78
2022/08/04 06:43:06;;;;;;;7.35;3.10;;;;;;;24.87;100.00;100127.72;5060123;28;20062;-78
2022/08/04 06:45:37;;;;;;;12.50;3.67;;;;;;;25.01;100.00;100138.78;5064780;28;20040;-78
2022/08/04 06:48:04;;;;;;;12.40;3.58;;;;;;;25.13;100.00;100145.41;5065181;28;20475;-77
2022/08/04 06:50:30;;;;;;;9.80;3.28;;;;;;;25.26;100.00;100161.81;5053210;28;20024;-76
2022/08/04 06:52:56;;;;;;;16.67;3.60;;;;;;;25.32;100.00;100167.31;5057432;28;20064;-77
2022/08/04 06:55:23;;;;;;;10.55;2.80;;;;;;;25.34;100.00;100167.16;5068509;28;20047;-78
2022/08/04 06:57:49;;;;;;;8.13;2.75;;;;;;;25.16;100.00;100132.47;5066330;28;20029;-78
2022/08/04 07:00:16;;;;;;;10.15;2.97;;;;;;;25.29;100.00;100148.00;5093869;28;20086;-77
2022/08/04 07:02:44;;;;;;;7.35;2.40;;;;;;;25.07;100.00;100114.69;5078899;28;20438;-77
2022/08/04 07:05:10;;;;;;;8.23;2.90;;;;;;;25.45;100.00;100163.22;5064516;28;20025;-73
2022/08/04 07:07:36;;;;;;;6.85;2.72;;;;;;;25.50;100.00;100148.25;5067213;28;20117;-77
2022/08/04 07:10:03;;;;;;;11.63;3.58;;;;;;;25.66;100.00;100166.13;5055400;28;20060;-77
2022/08/04 07:12:28;;;;;;;9.70;2.80;;;;;;;25.45;100.00;100098.66;5091585;28;20450;-76
2022/08/04 07:14:54;;;;;;;9.88;3.40;;;;;;;25.86;100.00;100145.75;5076286;28;20049;-77
2022/08/04 07:17:20;;;;;;;7.43;2.45;;;;;;;25.85;100.00;100128.81;5054898;28;20060;-76
2022/08/04 07:19:46;;;;;;;8.55;2.88;;;;;;;25.91;100.00;100120.00;5086732;28;20032;-77
2022/08/04 07:22:11;;;;;;;7.70;2.17;;;;;;;26.04;100.00;100137.38;5059212;28;20021;-75
2022/08/04 07:24:37;;;;;;;6.50;2.05;;;;;;;26.24;100.00;100152.00;5038612;28;20090;-77
2022/08/04 07:27:04;;;;;;;9.90;2.75;;;;;;;26.19;100.00;100141.78;5061896;28;20020;-78
2022/08/04 07:29:30;;;;;;;6.38;2.10;;;;;;;26.33;100.00;100149.06;5062556;28;20037;-78
2022/08/04 07:31:56;;;;;;;7.60;1.98;;;;;;;26.43;100.00;100149.63;5057239;28;20222;-77
2022/08/04 07:34:23;;;;;;;5.25;1.73;;;;;;;26.43;100.00;100143.38;5056215;28;20033;-77
2022/08/04 07:36:50;;;;;;;5.57;1.73;;;;;;;26.50;100.00;100154.28;5056146;28;20041;-78
2022/08/04 07:39:16;;;;;;;5.95;1.85;;;;;;;26.60;100.00;100162.94;5084119;28;20035;-77
2022/08/04 07:41:42;;;;;;;4.28;1.58;;;;;;;26.67;100.00;100166.53;5067344;28;20028;-78
2022/08/04 07:44:08;;;;;;;6.50;2.33;;;;;;;26.71;100.00;100162.44;5080746;28;20107;-78
2022/08/04 07:46:35;;;;;;;8.73;2.25;;;;;;;26.59;100.00;100155.88;5067823;28;20036;-78
2022/08/04 07:49:00;;;;;;;5.72;1.73;;;;;;;26.62;100.00;100171.66;5066635;28;20029;-74
2022/08/04 07:51:27;;;;;;;4.00;1.67;;;;;;;26.52;100.00;100157.63;5059741;28;20029;-74
2022/08/04 07:53:53;;;;;;;5.43;1.85;;;;;;;26.55;100.00;100176.97;5072432;28;20174;-78
2022/08/04 07:56:18;;;;;;;7.35;1.92;;;;;;;26.40;100.00;100163.47;5063588;28;20029;-76
2022/08/04 07:58:44;;;;;;;4.13;1.77;;;;;;;26.29;100.00;100150.47;5113267;27;20031;-78
2022/08/04 08:01:10;;;;;;;8.98;2.45;;;;;;;26.40;100.00;100174.25;5062088;28;20025;-77
2022/08/04 08:03:36;;;;;;;7.10;2.45;;;;;;;26.11;100.00;100139.16;5063087;28;20443;-78
2022/08/04 08:06:03;;;;;;;5.38;1.88;;;;;;;26.31;100.00;100156.50;5064706;28;20025;-77
2022/08/04 08:08:28;;;;;;;7.75;1.67;;;;;;;26.43;100.00;100165.78;5069634;28;20967;-78
2022/08/04 08:10:54;;;;;;;4.13;1.70;;;;;;;26.57;100.00;100160.59;5079305;28;20073;-78
2022/08/04 08:13:19;;;;;;;6.47;1.73;;;;;;;26.78;100.00;100184.94;5077819;28;20033;-78
2022/08/04 08:15:45;;;;;;;9.35;2.70;;;;;;;26.91;100.00;100168.97;5065930;28;20029;-76
2022/08/04 08:18:11;;;;;;;6.18;2.30;;;;;;;27.00;98.05;100157.09;5054316;28;20467;-77
2022/08/04 08:20:37;;;;;;;4.93;1.95;;;;;;;27.15;97.83;100165.97;5074925;28;20043;-75
2022/08/04 08:23:02;;;;;;;9.05;2.50;;;;;;;27.42;97.33;100189.53;5068674;28;20020;-77
2022/08/04 08:25:32;;;;;;;11.88;2.40;;;;;;;27.52;95.02;100191.13;5065074;28;20396;-76
2022/08/04 08:27:58;;;;;;;10.65;2.15;;;;;;;27.36;95.58;100157.06;5061388;28;20029;-74
2022/08/04 08:30:24;;;;;;;8.20;2.50;;;;;;;27.51;96.13;100173.28;5077398;28;20025;-77
2022/08/04 08:32:50;;;;;;;11.05;2.05;;;;;;;27.63;96.10;100171.72;5064323;28;20024;-78
2022/08/04 08:35:16;;;;;;;5.13;2.35;;;;;;;27.83;93.32;100191.66;5095248;28;20037;-75
2022/08/04 08:37:50;;;;;;;9.27;2.92;;;;;;;27.70;94.71;100156.41;5099052;28;20028;-75
2022/08/04 08:40:28;;;;;;;;;;;;;;;28.01;94.03;100199.31;5057730;28;20057;-76
2022/08/04 08:43:08;;;;;;;5.88;2.28;;;;;;;27.90;93.55;100187.16;5055985;28;19970;-79
2022/08/04 08:45:52;;;;;;;10.30;2.92;;;;;;;27.83;95.80;100194.34;5064074;28;20056;-77
2022/08/04 08:48:43;;;;;;;8.20;2.42;;;;;;;27.81;95.47;100182.94;5058012;28;20048;-79
2022/08/04 08:51:32;;;;;;;6.65;2.72;;;;;;;27.98;95.39;100178.09;5071805;28;20115;-76
2022/08/04 08:54:12;;;;;;;11.30;2.67;;;;;;;28.28;94.52;100195.84;5065302;28;20033;-78
2022/08/04 08:57:07;;;;;;;6.75;2.25;;;;;;;28.29;92.54;100203.72;5070322;28;20036;-78
2022/08/04 08:59:43;;;;;;;8.00;2.72;;;;;;;28.35;92.63;100208.38;5052687;28;20503;-76
2022/08/04 09:02:40;;;;;;;8.70;2.47;;;;;;;28.39;92.19;100211.50;5077874;28;20107;-76
2022/08/04 09:05:24;;;;;;;7.63;2.40;;;;;;;28.43;90.66;100221.72;5066410;28;20068;-75
2022/08/04 09:08:08;;;;;;;7.03;2.10;;;;;;;28.43;89.76;100216.31;5068752;28;20056;-76
2022/08/04 09:11:19;;;;;;;5.00;2.05;;;;;;;28.45;89.78;100223.41;5068081;28;20063;-78
2022/08/04 09:13:55;;;;;;;7.60;2.53;;;;;;;28.52;91.09;100221.59;5065707;28;20044;-79
2022/08/04 09:16:36;;;;;;;11.60;2.47;;;;;;;28.43;89.96;100189.28;5075392;28;20025;-78
2022/08/04 09:19:15;;;;;;;4.40;2.45;;;;;;;28.69;90.14;100223.84;5101748;28;20483;-78
2022/08/04 09:21:48;;;;;;;6.28;2.35;;;;;;;28.38;92.35;100185.50;5065102;28;20036;-77
2022/08/04 09:24:21;;;;;;;5.30;2.17;;;;;;;28.56;91.17;100236.41;5060186;28;20040;-79
2022/08/04 09:26:56;;;;;;;6.40;2.70;;;;;;;28.20;92.42;100209.47;5064136;28;20036;-78
2022/08/04 09:29:46;;;;;;;6.43;2.95;;;;;;;28.27;94.22;100232.00;5069067;28;20076;-78
2022/08/04 09:32:34;;;;;;;6.78;3.25;;;;;;;28.20;93.73;100252.72;5066406;28;20082;-79
2022/08/04 09:35:23;;;;;;;6.82;2.90;;;;;;;27.98;95.51;100248.34;5060499;28;20033;-78
2022/08/04 09:38:13;;;;;;;5.93;2.35;;;;;;;27.93;97.27;100267.81;5057553;28;20098;-79
2022/08/04 09:40:47;;;;;;;9.20;3.15;;;;;;;27.88;98.77;100275.69;5076928;28;20017;-77
2022/08/04 09:43:39;;;;;;;7.03;3.67;;;;;;;27.78;98.99;100277.84;5059035;28;20024;-78
2022/08/04 09:46:09;;;;;;;10.43;4.25;;;;;;;27.63;100.00;100272.47;5064175;28;20040;-79
2022/08/04 09:48:57;;;;;;;12.95;3.72;;;;;;;27.78;100.00;100280.56;5090076;28;20044;-78
2022/08/04 09:51:32;;;;;;;10.80;3.60;;;;;;;27.56;100.00;100216.72;5072984;28;20367;-79
2022/08/04 09:54:27;;;;;;;10.50;4.03;;;;;;;28.14;100.00;100303.00;5052500;28;20036;-77
2022/08/04 09:57:00;;;;;;;8.30;3.80;;;;;;;28.21;100.00;100290.38;5054321;28;20047;-77
2022/08/04 09:59:29;;;;;;;11.70;4.45;;;;;;;28.14;100.00;100289.47;5077490;28;20048;-77
2022/08/04 10:01:56;;;;;;;13.85;4.53;;;;;;;27.67;100.00;100241.38;5050788;28;20078;-77
2022/08/04 10:04:24;;;;;;;7.05;3.45;;;;;;;27.71;100.00;100269.69;5059459;28;20016;-77
2022/08/04 10:06:52;;;;;;;6.57;3.35;;;;;;;27.67;100.00;100275.63;5084104;28;20020;-76
2022/08/04 10:09:30;;;;;;;6.13;3.03;;;;;;;27.39;100.00;100278.16;5067473;28;20471;-74
2022/08/04 10:12:02;;;;;;;6.47;2.65;;;;;;;27.33;100.00;100297.81;5091735;28;20254;-78
2022/08/04 10:14:59;;;;;;;10.00;3.38;;;;;;;26.86;100.00;100309.81;5095657;28;20036;-76
2022/08/04 10:17:42;;;;;;;6.32;3.15;;;;;;;25.90;100.00;100287.13;5058566;28;20031;-77
2022/08/04 10:20:13;;;;;;;5.85;2.90;;;;;;;25.15;100.00;100291.31;5059245;28;20040;-77
2022/08/04 10:22:52;;;;;;;6.82;3.05;;;;;;;24.51;100.00;100282.34;5089896;28;20470;-77
2022/08/04 10:25:29;;;;;;;18.17;4.18;;;;;;;24.29;100.00;100316.09;5054667;28;20029;-77
2022/08/04 10:27:58;;;;;;;9.82;3.50;;;;;;;24.15;100.00;100297.97;5059558;28;20094;-77
2022/08/04 10:30:24;;;;;;;6.60;2.95;;;;;;;23.84;100.00;100246.72;5048269;28;20470;-78
2022/08/04 10:33:07;;;;;;;5.80;3.17;;;;;;;24.03;100.00;100271.56;5059275;28;20075;-76
2022/08/04 10:35:36;;;;;;;8.60;4.15;;;;;;;24.21;100.00;100294.59;5059595;28;20037;-77
2022/08/04 10:38:40;;;;;;;17.05;3.75;;;;;;;24.32;100.00;100267.41;5068837;28;20079;-77
2022/08/04 10:41:41;;;;;;;21.23;4.07;;;;;;;24.60;100.00;100275.13;5062980;28;20590;-77
2022/08/04 10:44:32;;;;;;;11.00;3.72;;;;;;;24.79;100.00;100288.19;4996069;28;20055;-77
2022/08/04 10:47:00;;;;;;;11.05;3.63;;;;;;;24.83;100.00;100276.13;5083241;28;20066;-77
2022/08/04 10:49:37;;;;;;;8.48;3.75;;;;;;;24.80;100.00;100249.56;5070891;28;20034;-77
2022/08/04 10:52:24;;;;;;;14.50;4.80;;;;;;;25.21;100.00;100280.69;5067685;28;20032;-77
2022/08/04 10:55:04;;;;;;;12.95;3.83;;;;;;;25.37;100.00;100277.97;5055414;28;20096;-76
2022/08/04 10:57:40;;;;;;;10.00;3.72;;;;;;;25.41;100.00;100243.47;5061274;28;20032;-77
2022/08/04 11:00:09;;;;;;;11.00;3.45;;;;;;;25.71;100.00;100274.13;5055457;28;20023;-77
2022/08/04 11:02:40;;;;;;;8.20;2.55;;;;;;;25.87;100.00;100282.09;5056636;28;20071;-76
2022/08/04 11:05:28;;;;;;;8.88;3.20;;;;;;;26.09;100.00;100278.56;5054452;28;20032;-77
2022/08/04 11:08:06;;;;;;;8.48;4.22;;;;;;;26.17;100.00;100273.16;5056545;28;20151;-77
2022/08/04 11:10:34;;;;;;;15.82;4.47;;;;;;;26.28;100.00;100270.03;5056719;28;20135;-76
2022/08/04 11:13:04;;;;;;;24.65;4.80;;;;;;;26.31;100.00;100280.44;5053185;28;20128;-77
2022/08/04 11:15:37;;;;;;;18.70;6.03;;;;;;;26.25;100.00;100253.41;5052963;28;20120;-77
2022/08/04 11:18:06;;;;;;;10.40;3.90;;;;;;;26.33;100.00;100283.78;5056415;28;20036;-76
2022/08/04 11:20:35;;;;;;;7.88;3.03;;;;;;;26.41;100.00;100283.72;5046302;28;20405;-76
2022/08/04 11:23:12;;;;;;;9.88;3.03;;;;;;;26.39;100.00;100256.16;5059228;28;20035;-76
2022/08/04 11:25:55;;;;;;;11.15;3.08;;;;;;;26.61;100.00;100269.72;5050558;28;20059;-76
2022/08/04 11:28:45;;;;;;;7.38;2.75;;;;;;;26.63;100.00;100278.50;5051537;28;20048;-76
2022/08/04 11:31:13;;;;;;;10.98;3.47;;;;;;;26.64;100.00;100288.25;5062422;28;20028;-76
2022/08/04 11:33:51;;;;;;;9.40;3.13;;;;;;;26.65;100.00;100287.22;5040624;28;20136;-76
2022/08/04 11:36:28;;;;;;;9.45;3.63;;;;;;;26.61;100.00;100285.91;5038890;28;20032;-76
2022/08/04 11:39:24;;;;;;;15.30;2.92;;;;;;;26.78;100.00;100272.09;5030455;28;20052;-76
2022/08/04 11:41:57;;;;;;;6.65;2.72;;;;;;;27.17;100.00;100287.22;5068367;28;20478;-76
2022/08/04 11:44:42;;;;;;;14.85;3.60;;;;;;;27.33;100.00;100281.63;5055888;28;20033;-77
2022/08/04 11:47:18;;;;;;;8.35;3.10;;;;;;;27.35;100.00;100275.00;5058005;28;20029;-77
2022/08/04 11:49:46;;;;;;;9.00;2.97;;;;;;;27.65;100.00;100283.91;5062905;28;20132;-77
2022/08/04 11:52:12;;;;;;;10.18;3.38;;;;;;;28.08;100.00;100267.81;5062044;28;20028;-77
2022/08/04 11:54:39;;;;;;;8.75;2.90;;;;;;;28.74;100.00;100269.22;5083645;28;20047;-77
2022/08/04 11:57:04;;;;;;;8.55;3.47;;;;;;;29.00;100.00;100272.09;5072812;28;20039;-76